createdAt,value
2019-04-01T03:56:31.927Z,-1.15
2019-04-01T03:59:03.214Z,-1.24
2019-04-01T04:01:35.392Z,-1.16
2019-04-01T04:04:05.919Z,-1.03
2019-04-01T04:06:36.506Z,-0.88
2019-04-01T04:09:07.082Z,-0.73
2019-04-01T04:11:37.760Z,-0.53
2019-04-01T04:14:08.451Z,-0.34
2019-04-01T04:16:39.087Z,-0.16
2019-04-01T04:19:09.719Z,-0.01
2019-04-01T04:21:40.451Z,0.08
2019-04-01T04:24:11.088Z,0.17
2019-04-01T04:26:41.621Z,0.28
2019-04-01T04:29:12.153Z,0.28
2019-04-01T04:31:42.781Z,0.36
2019-04-01T04:34:13.519Z,0.39
2019-04-01T04:36:44.147Z,0.40
2019-04-01T04:39:14.681Z,0.44
2019-04-01T04:41:45.342Z,0.48
2019-04-01T04:44:15.889Z,0.43
2019-04-01T04:46:46.371Z,0.57
2019-04-01T04:49:17.011Z,0.63
2019-04-01T04:51:47.589Z,0.57
2019-04-01T04:54:18.270Z,0.64
2019-04-01T04:56:48.802Z,0.71
2019-04-01T04:59:19.447Z,0.79
2019-04-01T05:01:50.170Z,0.89
2019-04-01T05:04:20.909Z,0.99
2019-04-01T05:06:51.393Z,1.07
2019-04-01T05:09:21.993Z,1.17
2019-04-01T05:11:52.730Z,1.28
2019-04-01T05:14:23.192Z,1.40
2019-04-01T05:16:53.780Z,1.40
2019-04-01T05:19:24.262Z,1.41
2019-04-01T05:21:55.038Z,1.57
2019-04-01T05:24:25.527Z,1.81
2019-04-01T05:26:57.184Z,1.99
2019-04-01T05:29:27.761Z,3.85
2019-04-01T05:31:58.386Z,5.62
2019-04-01T05:34:29.432Z,7.47
2019-04-01T05:36:59.960Z,8.18
2019-04-01T05:39:30.598Z,9.55
2019-04-01T05:42:01.235Z,10.16
2019-04-01T05:44:32.881Z,10.69
2019-04-01T05:47:03.469Z,11.82
2019-04-01T05:49:34.054Z,12.72
2019-04-01T05:52:04.590Z,13.28
2019-04-01T05:54:35.177Z,13.20
2019-04-01T05:57:05.846Z,13.96
2019-04-01T05:59:36.486Z,14.58
2019-04-01T06:02:07.135Z,14.68
2019-04-01T06:04:37.855Z,14.18
2019-04-01T06:07:08.487Z,12.15
2019-04-01T06:09:39.084Z,10.35
2019-04-01T06:12:09.591Z,9.30
2019-04-01T06:14:41.149Z,8.49
2019-04-01T06:17:11.641Z,8.08
2019-04-01T06:19:42.159Z,7.51
2019-04-01T06:22:12.900Z,7.05
2019-04-01T06:24:43.530Z,6.54
2019-04-01T06:27:15.599Z,6.79
2019-04-01T06:29:46.541Z,6.63
2019-04-01T06:32:17.076Z,6.48
2019-04-01T06:34:52.917Z,6.35
2019-04-01T06:37:19.774Z,6.50
2019-04-01T06:39:50.303Z,6.33
2019-04-01T06:42:21.820Z,6.29
2019-04-01T06:44:52.414Z,6.43
2019-04-01T06:47:22.916Z,6.71
2019-04-01T06:49:53.446Z,6.93
2019-04-01T06:52:24.050Z,6.98
2019-04-01T06:54:54.575Z,6.59
2019-04-01T06:57:25.107Z,6.54
2019-04-01T06:59:55.679Z,6.96
2019-04-01T07:02:26.214Z,6.99
2019-04-01T07:04:56.742Z,7.29
2019-04-01T07:07:27.709Z,7.61
2019-04-01T07:09:58.214Z,7.51
2019-04-01T07:12:28.842Z,7.56
2019-04-01T07:14:59.398Z,7.78
2019-04-01T07:17:30.116Z,8.31
2019-04-01T07:20:00.848Z,8.32
2019-04-01T07:22:31.819Z,8.74
2019-04-01T07:25:02.528Z,8.82
2019-04-01T07:27:33.279Z,8.53
2019-04-01T07:30:04.820Z,8.71
2019-04-01T07:32:35.393Z,8.90
2019-04-01T07:35:06.188Z,9.08
2019-04-01T07:37:38.253Z,9.09
2019-04-01T07:40:08.827Z,9.57
2019-04-01T07:42:39.510Z,9.69
2019-04-01T07:45:10.039Z,9.90
2019-04-01T07:47:40.740Z,9.94
2019-04-01T07:50:12.428Z,9.90
2019-04-01T07:52:43.173Z,9.41
2019-04-01T07:55:13.814Z,9.36
2019-04-01T07:57:44.342Z,9.29
2019-04-01T08:00:14.874Z,9.16
2019-04-01T08:02:48.857Z,8.71
2019-04-01T08:05:17.879Z,9.18
2019-04-01T08:07:48.508Z,9.48
2019-04-01T08:10:20.211Z,9.34
2019-04-01T08:12:50.701Z,9.05
2019-04-01T08:15:22.926Z,9.34
2019-04-01T08:17:53.685Z,9.34
2019-04-01T08:20:25.648Z,8.96
2019-04-01T08:22:56.290Z,9.24
2019-04-01T08:25:26.818Z,9.35
2019-04-01T08:27:57.378Z,9.23
2019-04-01T08:30:28.072Z,9.28
2019-04-01T08:32:58.743Z,9.64
2019-04-01T08:35:29.252Z,9.58
2019-04-01T08:37:59.905Z,9.80
2019-04-01T08:40:30.505Z,9.55
2019-04-01T08:43:01.147Z,9.78
2019-04-01T08:45:36.815Z,9.70
2019-04-01T08:48:07.367Z,9.72
2019-04-01T08:50:38.186Z,9.77
2019-04-01T08:53:08.627Z,9.90
2019-04-01T08:55:39.149Z,9.60
2019-04-01T08:58:09.610Z,9.68
2019-04-01T09:00:40.897Z,9.95
2019-04-01T09:03:11.542Z,9.95
2019-04-01T09:05:42.103Z,9.55
2019-04-01T09:08:12.719Z,10.14
2019-04-01T09:10:43.235Z,10.19
2019-04-01T09:13:13.786Z,10.24
2019-04-01T09:15:44.396Z,10.01
2019-04-01T09:18:14.925Z,10.17
2019-04-01T09:20:45.463Z,10.37
2019-04-01T09:23:15.930Z,10.63
2019-04-01T09:25:46.493Z,10.69
2019-04-01T09:28:16.960Z,10.72
2019-04-01T09:30:47.501Z,10.61
2019-04-01T09:33:18.070Z,10.43
2019-04-01T09:35:48.644Z,10.69
2019-04-01T09:38:19.280Z,10.57
2019-04-01T09:40:49.927Z,10.54
2019-04-01T09:43:20.440Z,10.61
2019-04-01T09:45:50.972Z,10.44
2019-04-01T09:48:23.670Z,10.70
2019-04-01T09:50:53.876Z,10.75
2019-04-01T09:53:24.506Z,10.54
2019-04-01T09:55:55.070Z,10.56
2019-04-01T09:58:25.685Z,10.46
2019-04-01T10:00:56.210Z,10.38
2019-04-01T10:03:26.675Z,10.52
2019-04-01T10:05:57.438Z,10.54
2019-04-01T10:08:41.538Z,10.47
2019-04-01T10:11:00.517Z,10.60
2019-04-01T10:13:31.221Z,10.88
2019-04-01T10:16:01.850Z,9.89
2019-04-01T10:18:32.383Z,9.97
2019-04-01T10:21:02.919Z,10.18
2019-04-01T10:23:33.394Z,10.25
2019-04-01T10:26:03.979Z,10.28
2019-04-01T10:28:34.509Z,10.20
2019-04-01T10:31:05.137Z,10.65
2019-04-01T10:33:35.673Z,10.78
2019-04-01T10:36:06.298Z,10.68
2019-04-01T10:38:37.243Z,10.93
2019-04-01T10:41:07.779Z,11.04
2019-04-01T10:43:38.716Z,10.95
2019-04-01T10:46:12.337Z,10.87
2019-04-01T10:48:43.225Z,10.94
2019-04-01T10:51:15.019Z,10.92
2019-04-01T10:53:45.675Z,10.68
2019-04-01T10:56:16.223Z,10.56
2019-04-01T10:58:47.029Z,10.52
2019-04-01T11:01:17.656Z,10.75
2019-04-01T11:03:48.270Z,10.90
2019-04-01T11:06:18.740Z,11.01
2019-04-01T11:08:49.457Z,10.86
2019-04-01T11:11:20.092Z,11.03
2019-04-01T11:14:08.435Z,11.34
2019-04-01T11:16:56.782Z,10.92
2019-04-01T11:19:27.317Z,11.02
2019-04-01T11:21:59.076Z,10.96
2019-04-01T11:24:29.560Z,11.22
2019-04-01T11:27:00.041Z,11.26
2019-04-01T11:29:30.725Z,11.22
2019-04-01T11:32:02.361Z,11.47
2019-04-01T11:34:32.912Z,11.56
2019-04-01T11:37:03.448Z,11.54
2019-04-01T11:39:36.167Z,11.69
2019-04-01T11:42:07.011Z,11.17
2019-04-01T11:44:37.749Z,11.11
2019-04-01T11:47:08.285Z,11.01
2019-04-01T11:49:38.811Z,11.02
2019-04-01T11:52:09.374Z,10.87
2019-04-01T11:54:40.068Z,10.98
2019-04-01T11:57:11.104Z,11.05
2019-04-01T11:59:41.951Z,10.71
2019-04-01T12:02:12.697Z,10.56
2019-04-01T12:04:43.182Z,10.74
2019-04-01T12:07:13.758Z,10.73
2019-04-01T12:09:44.287Z,10.87
2019-04-01T12:12:23.674Z,10.85
2019-04-01T12:14:47.083Z,11.06
2019-04-01T12:17:17.723Z,11.12
2019-04-01T12:19:48.214Z,11.32
2019-04-01T12:22:19.912Z,11.36
2019-04-01T12:24:51.006Z,11.48
2019-04-01T12:27:22.612Z,11.29
2019-04-01T12:29:53.180Z,11.31
2019-04-01T12:32:23.730Z,11.41
2019-04-01T12:34:54.199Z,11.51
2019-04-01T12:37:24.744Z,11.64
2019-04-01T12:39:55.219Z,11.64
2019-04-01T12:42:25.765Z,11.67
2019-04-01T12:44:56.326Z,11.42
2019-04-01T12:47:26.816Z,11.52
2019-04-01T12:49:57.417Z,11.56
2019-04-01T12:52:27.892Z,11.79
2019-04-01T12:55:00.872Z,11.79
2019-04-01T12:57:31.851Z,11.73
2019-04-01T13:00:02.475Z,11.78
2019-04-01T13:02:36.398Z,11.72
2019-04-01T13:05:07.958Z,11.67
2019-04-01T13:07:38.481Z,11.72
2019-04-01T13:10:09.436Z,11.66
2019-04-01T13:12:39.954Z,11.31
2019-04-01T13:15:10.481Z,11.22
2019-04-01T13:17:40.966Z,11.28
2019-04-01T13:20:13.902Z,11.32
2019-04-01T13:22:44.629Z,11.28
2019-04-01T13:25:15.101Z,11.27
2019-04-01T13:27:45.802Z,11.56
2019-04-01T13:30:16.275Z,11.33
2019-04-01T13:32:46.778Z,11.27
2019-04-01T13:35:17.258Z,11.02
2019-04-01T13:37:47.840Z,10.81
2019-04-01T13:40:19.594Z,11.01
2019-04-01T13:42:50.489Z,11.17
2019-04-01T13:45:21.551Z,11.30
2019-04-01T13:47:52.394Z,11.18
2019-04-01T13:50:22.924Z,11.33
2019-04-01T13:52:53.475Z,11.18
2019-04-01T13:55:24.084Z,11.40
2019-04-01T13:57:54.636Z,11.42
2019-04-01T14:00:27.399Z,11.57
2019-04-01T14:02:57.555Z,11.42
2019-04-01T14:05:28.042Z,11.35
2019-04-01T14:07:58.616Z,11.32
2019-04-01T14:10:29.126Z,11.39
2019-04-01T14:12:59.758Z,11.37
2019-04-01T14:15:30.900Z,11.08
2019-04-01T14:18:01.531Z,11.15
2019-04-01T14:20:32.012Z,11.23
2019-04-01T14:23:03.625Z,11.40
2019-04-01T14:25:34.995Z,11.45
2019-04-01T14:28:05.705Z,11.31
2019-04-01T14:30:36.709Z,11.33
2019-04-01T14:33:07.202Z,11.22
2019-04-01T14:35:37.813Z,11.39
2019-04-01T14:38:08.297Z,11.41
2019-04-01T14:40:38.886Z,11.14
2019-04-01T14:43:09.984Z,11.16
2019-04-01T14:45:40.960Z,10.90
2019-04-01T14:48:11.428Z,11.00
2019-04-01T14:50:42.051Z,10.98
2019-04-01T14:53:13.683Z,10.97
2019-04-01T14:55:44.314Z,11.05
2019-04-01T14:58:14.787Z,10.96
2019-04-01T15:00:45.269Z,10.79
2019-04-01T15:03:15.750Z,10.83
2019-04-01T15:05:46.232Z,10.76
2019-04-01T15:08:19.429Z,10.79
2019-04-01T15:10:48.958Z,10.77
2019-04-01T15:13:20.499Z,10.85
2019-04-01T15:15:51.120Z,11.02
2019-04-01T15:18:21.707Z,11.01
2019-04-01T15:20:52.255Z,11.08
2019-04-01T15:23:25.021Z,10.99
2019-04-01T15:25:55.081Z,10.89
2019-04-01T15:28:25.613Z,10.83
2019-04-01T15:30:56.553Z,10.83
2019-04-01T15:33:28.016Z,10.91
2019-04-01T15:35:58.561Z,10.71
2019-04-01T15:38:29.272Z,10.75
2019-04-01T15:41:01.350Z,10.72
2019-04-01T15:43:31.985Z,10.67
2019-04-01T15:46:04.152Z,10.51
2019-04-01T15:48:34.893Z,10.46
2019-04-01T15:51:05.421Z,10.63
2019-04-01T15:53:36.054Z,10.28
2019-04-01T15:56:07.725Z,10.27
2019-04-01T15:58:38.239Z,10.39
2019-04-01T16:01:08.797Z,10.25
2019-04-01T16:03:39.404Z,10.37
2019-04-01T16:06:09.937Z,10.24
2019-04-01T16:08:40.460Z,10.40
2019-04-01T16:11:10.997Z,10.18
2019-04-01T16:13:42.329Z,10.12
2019-04-01T16:16:14.673Z,10.10
2019-04-01T16:18:45.453Z,10.22
2019-04-01T16:21:15.989Z,10.17
2019-04-01T16:23:47.311Z,10.05
2019-04-01T16:26:18.031Z,9.97
2019-04-01T16:28:48.604Z,9.89
2019-04-01T16:31:19.137Z,9.90
2019-04-01T16:33:49.672Z,9.80
2019-04-01T16:36:21.317Z,9.83
2019-04-01T16:38:51.959Z,9.72
2019-04-01T16:47:46.945Z,9.49
2019-04-01T16:50:17.978Z,9.51
2019-04-01T16:52:48.649Z,9.49
2019-04-01T16:55:19.213Z,9.52
2019-04-01T16:57:49.693Z,9.42
2019-04-01T17:00:21.303Z,9.34
2019-04-01T17:02:51.932Z,9.22
2019-04-01T17:05:25.748Z,9.13
2019-04-01T17:07:56.372Z,9.02
2019-04-01T17:10:26.871Z,8.89
2019-04-01T17:13:01.468Z,8.85
2019-04-01T17:15:31.220Z,8.80
2019-04-01T17:18:01.878Z,8.73
2019-04-01T17:20:32.476Z,8.69
2019-04-01T17:23:03.006Z,8.62
2019-04-01T17:25:33.989Z,8.47
2019-04-01T17:28:04.613Z,8.37
2019-04-01T17:30:35.145Z,8.25
2019-04-01T17:33:08.389Z,8.24
2019-04-01T17:35:37.956Z,8.19
2019-04-01T17:38:08.485Z,8.09
2019-04-01T17:40:39.120Z,8.06
2019-04-01T17:43:09.814Z,8.00
2019-04-01T17:45:41.309Z,7.98
2019-04-01T17:48:12.291Z,7.87
2019-04-01T17:50:42.778Z,7.74
2019-04-01T17:53:13.350Z,7.68
2019-04-01T17:55:45.758Z,7.60
2019-04-01T17:58:16.505Z,7.56
2019-04-01T18:00:48.706Z,7.48
2019-04-01T18:03:19.423Z,7.41
2019-04-01T18:05:50.188Z,7.32
2019-04-01T18:08:20.692Z,7.25
2019-04-01T18:10:52.047Z,7.24
2019-04-01T18:13:25.749Z,7.16
2019-04-01T18:15:57.511Z,7.11
2019-04-01T18:18:28.654Z,7.08
2019-04-01T18:21:04.102Z,7.03
2019-04-01T18:23:34.829Z,6.99
2019-04-01T18:26:05.497Z,6.91
2019-04-01T18:28:36.096Z,6.87
2019-04-01T18:31:06.625Z,6.82
2019-04-01T18:33:37.163Z,6.81
2019-04-01T18:36:07.786Z,6.76
2019-04-01T18:38:40.943Z,6.74
2019-04-01T18:41:10.595Z,6.72
2019-04-01T18:43:41.227Z,6.68
2019-04-01T18:46:11.794Z,6.61
2019-04-01T18:48:42.395Z,6.57
2019-04-01T18:51:12.928Z,6.51
2019-04-01T18:53:43.561Z,6.46
2019-04-01T18:56:14.088Z,6.39
2019-04-01T18:58:44.716Z,6.39
2019-04-01T19:01:16.065Z,6.35
2019-04-01T19:03:46.907Z,6.24
2019-04-01T19:06:18.578Z,6.17
2019-04-01T19:08:49.203Z,6.10
2019-04-01T19:11:19.833Z,6.02
